sensor_id;sensor_type;location;lat;lon;timestamp;P1;durP1;ratioP1;P2;durP2;ratioP2
52180;SDS011;38158;53.338;6.514;2022-12-29T00:01:40;8.40;;;5.05;;
52180;SDS011;38158;53.338;6.514;2022-12-29T00:04:06;7.38;;;4.53;;
52180;SDS011;38158;53.338;6.514;2022-12-29T00:06:31;7.85;;;4.63;;
52180;SDS011;38158;53.338;6.514;2022-12-29T00:08:57;7.82;;;4.78;;
52180;SDS011;38158;53.338;6.514;2022-12-29T00:11:24;7.40;;;5.00;;
52180;SDS011;38158;53.338;6.514;2022-12-29T00:13:52;7.68;;;5.38;;
52180;SDS011;38158;53.338;6.514;2022-12-29T00:16:37;5.90;;;4.38;;
52180;SDS011;38158;53.338;6.514;2022-12-29T00:19:05;5.88;;;4.65;;
52180;SDS011;38158;53.338;6.514;2022-12-29T00:21:31;7.22;;;4.25;;
52180;SDS011;38158;53.338;6.514;2022-12-29T00:24:17;8.43;;;4.78;;
52180;SDS011;38158;53.338;6.514;2022-12-29T00:26:47;5.80;;;4.25;;
52180;SDS011;38158;53.338;6.514;2022-12-29T00:29:36;6.97;;;4.30;;
52180;SDS011;38158;53.338;6.514;2022-12-29T00:32:25;5.75;;;3.55;;
52180;SDS011;38158;53.338;6.514;2022-12-29T00:35:11;5.47;;;3.60;;
52180;SDS011;38158;53.338;6.514;2022-12-29T00:37:43;5.32;;;3.00;;
52180;SDS011;38158;53.338;6.514;2022-12-29T00:40:31;4.50;;;3.22;;
52180;SDS011;38158;53.338;6.514;2022-12-29T00:43:15;6.22;;;3.30;;
52180;SDS011;38158;53.338;6.514;2022-12-29T00:45:59;4.75;;;3.15;;
52180;SDS011;38158;53.338;6.514;2022-12-29T00:48:25;5.55;;;3.30;;
52180;SDS011;38158;53.338;6.514;2022-12-29T00:51:10;4.53;;;3.33;;
52180;SDS011;38158;53.338;6.514;2022-12-29T00:53:35;4.47;;;3.13;;
52180;SDS011;38158;53.338;6.514;2022-12-29T00:56:01;5.68;;;3.42;;
52180;SDS011;38158;53.338;6.514;2022-12-29T00:58:27;6.60;;;3.67;;
52180;SDS011;38158;53.338;6.514;2022-12-29T01:01:01;5.68;;;3.55;;
52180;SDS011;38158;53.338;6.514;2022-12-29T01:03:30;5.07;;;3.22;;
52180;SDS011;38158;53.338;6.514;2022-12-29T01:05:56;6.53;;;3.92;;
52180;SDS011;38158;53.338;6.514;2022-12-29T01:08:21;4.45;;;2.95;;
52180;SDS011;38158;53.338;6.514;2022-12-29T01:10:57;4.40;;;2.95;;
52180;SDS011;38158;53.338;6.514;2022-12-29T01:13:23;5.30;;;3.58;;
52180;SDS011;38158;53.338;6.514;2022-12-29T01:15:50;5.22;;;3.35;;
52180;SDS011;38158;53.338;6.514;2022-12-29T01:20:42;5.78;;;3.78;;
52180;SDS011;38158;53.338;6.514;2022-12-29T01:23:07;6.15;;;3.47;;
52180;SDS011;38158;53.338;6.514;2022-12-29T01:25:33;5.82;;;3.35;;
52180;SDS011;38158;53.338;6.514;2022-12-29T01:27:58;6.05;;;3.35;;
52180;SDS011;38158;53.338;6.514;2022-12-29T01:30:24;5.57;;;3.30;;
52180;SDS011;38158;53.338;6.514;2022-12-29T01:32:50;6.95;;;3.75;;
52180;SDS011;38158;53.338;6.514;2022-12-29T01:35:15;5.60;;;3.50;;
52180;SDS011;38158;53.338;6.514;2022-12-29T01:37:41;6.10;;;4.10;;
52180;SDS011;38158;53.338;6.514;2022-12-29T01:40:07;4.63;;;3.15;;
52180;SDS011;38158;53.338;6.514;2022-12-29T01:42:33;6.90;;;4.28;;
52180;SDS011;38158;53.338;6.514;2022-12-29T01:45:11;6.18;;;3.72;;
52180;SDS011;38158;53.338;6.514;2022-12-29T01:47:40;6.25;;;4.28;;
52180;SDS011;38158;53.338;6.514;2022-12-29T01:52:56;5.47;;;4.10;;
52180;SDS011;38158;53.338;6.514;2022-12-29T01:55:27;7.55;;;4.68;;
52180;SDS011;38158;53.338;6.514;2022-12-29T01:57:56;5.72;;;3.97;;
52180;SDS011;38158;53.338;6.514;2022-12-29T02:00:26;6.60;;;4.18;;
52180;SDS011;38158;53.338;6.514;2022-12-29T02:02:52;5.85;;;4.25;;
52180;SDS011;38158;53.338;6.514;2022-12-29T02:08:17;6.35;;;3.53;;
52180;SDS011;38158;53.338;6.514;2022-12-29T02:10:45;5.90;;;4.43;;
52180;SDS011;38158;53.338;6.514;2022-12-29T02:13:14;5.72;;;3.88;;
52180;SDS011;38158;53.338;6.514;2022-12-29T02:21:04;5.85;;;3.53;;
52180;SDS011;38158;53.338;6.514;2022-12-29T02:24:00;5.63;;;4.30;;
52180;SDS011;38158;53.338;6.514;2022-12-29T02:32:05;7.15;;;5.10;;
52180;SDS011;38158;53.338;6.514;2022-12-29T02:37:57;8.93;;;4.88;;
52180;SDS011;38158;53.338;6.514;2022-12-29T02:40:27;8.18;;;5.47;;
52180;SDS011;38158;53.338;6.514;2022-12-29T02:43:19;7.72;;;4.43;;
52180;SDS011;38158;53.338;6.514;2022-12-29T02:45:53;5.63;;;2.92;;
52180;SDS011;38158;53.338;6.514;2022-12-29T02:48:36;7.97;;;4.65;;
52180;SDS011;38158;53.338;6.514;2022-12-29T02:51:10;6.93;;;4.90;;
52180;SDS011;38158;53.338;6.514;2022-12-29T02:53:42;7.68;;;5.10;;
52180;SDS011;38158;53.338;6.514;2022-12-29T02:56:27;8.57;;;5.32;;
52180;SDS011;38158;53.338;6.514;2022-12-29T02:58:53;9.07;;;5.40;;
52180;SDS011;38158;53.338;6.514;2022-12-29T03:15:55;8.63;;;3.28;;
52180;SDS011;38158;53.338;6.514;2022-12-29T03:18:44;3.88;;;2.15;;
52180;SDS011;38158;53.338;6.514;2022-12-29T03:21:27;3.10;;;1.50;;
52180;SDS011;38158;53.338;6.514;2022-12-29T03:24:26;2.97;;;1.70;;
52180;SDS011;38158;53.338;6.514;2022-12-29T03:26:55;3.88;;;1.25;;
52180;SDS011;38158;53.338;6.514;2022-12-29T03:29:24;3.22;;;1.85;;
52180;SDS011;38158;53.338;6.514;2022-12-29T03:31:53;4.00;;;1.63;;
52180;SDS011;38158;53.338;6.514;2022-12-29T03:36:54;2.83;;;0.95;;
52180;SDS011;38158;53.338;6.514;2022-12-29T03:39:25;7.88;;;1.70;;
52180;SDS011;38158;53.338;6.514;2022-12-29T03:41:54;5.70;;;0.80;;
52180;SDS011;38158;53.338;6.514;2022-12-29T03:44:35;7.18;;;1.10;;
52180;SDS011;38158;53.338;6.514;2022-12-29T03:47:02;6.10;;;1.20;;
52180;SDS011;38158;53.338;6.514;2022-12-29T03:49:28;10.17;;;1.20;;
52180;SDS011;38158;53.338;6.514;2022-12-29T03:51:54;4.07;;;0.90;;
52180;SDS011;38158;53.338;6.514;2022-12-29T03:54:19;4.82;;;1.02;;
52180;SDS011;38158;53.338;6.514;2022-12-29T03:56:46;4.43;;;0.88;;
52180;SDS011;38158;53.338;6.514;2022-12-29T03:59:11;2.83;;;0.85;;
52180;SDS011;38158;53.338;6.514;2022-12-29T04:01:37;3.17;;;1.02;;
52180;SDS011;38158;53.338;6.514;2022-12-29T04:04:03;3.92;;;0.95;;
52180;SDS011;38158;53.338;6.514;2022-12-29T04:06:29;3.15;;;0.90;;
52180;SDS011;38158;53.338;6.514;2022-12-29T04:08:54;5.55;;;0.95;;
52180;SDS011;38158;53.338;6.514;2022-12-29T04:11:21;4.30;;;0.80;;
52180;SDS011;38158;53.338;6.514;2022-12-29T04:13:47;5.25;;;1.00;;
52180;SDS011;38158;53.338;6.514;2022-12-29T04:16:13;5.60;;;1.00;;
52180;SDS011;38158;53.338;6.514;2022-12-29T04:18:39;2.63;;;1.30;;
52180;SDS011;38158;53.338;6.514;2022-12-29T04:21:04;4.45;;;1.05;;
52180;SDS011;38158;53.338;6.514;2022-12-29T04:23:32;3.75;;;0.98;;
52180;SDS011;38158;53.338;6.514;2022-12-29T04:25:59;4.03;;;1.00;;
52180;SDS011;38158;53.338;6.514;2022-12-29T04:28:25;3.42;;;0.90;;
52180;SDS011;38158;53.338;6.514;2022-12-29T04:30:52;3.58;;;1.13;;
52180;SDS011;38158;53.338;6.514;2022-12-29T04:33:18;6.05;;;0.90;;
52180;SDS011;38158;53.338;6.514;2022-12-29T04:35:44;3.03;;;1.05;;
52180;SDS011;38158;53.338;6.514;2022-12-29T04:38:11;4.90;;;0.98;;
52180;SDS011;38158;53.338;6.514;2022-12-29T04:40:37;4.65;;;1.00;;
52180;SDS011;38158;53.338;6.514;2022-12-29T04:43:05;4.07;;;0.70;;
52180;SDS011;38158;53.338;6.514;2022-12-29T04:45:30;6.10;;;0.77;;
52180;SDS011;38158;53.338;6.514;2022-12-29T04:47:56;7.53;;;0.65;;
52180;SDS011;38158;53.338;6.514;2022-12-29T04:50:22;9.32;;;1.02;;
52180;SDS011;38158;53.338;6.514;2022-12-29T04:52:47;7.30;;;1.63;;
52180;SDS011;38158;53.338;6.514;2022-12-29T04:55:13;7.78;;;1.25;;
52180;SDS011;38158;53.338;6.514;2022-12-29T04:57:39;10.57;;;1.08;;
52180;SDS011;38158;53.338;6.514;2022-12-29T05:00:05;6.63;;;1.40;;
52180;SDS011;38158;53.338;6.514;2022-12-29T05:02:34;9.30;;;1.40;;
52180;SDS011;38158;53.338;6.514;2022-12-29T05:05:00;7.18;;;1.27;;
52180;SDS011;38158;53.338;6.514;2022-12-29T05:07:26;12.63;;;1.10;;
52180;SDS011;38158;53.338;6.514;2022-12-29T05:09:52;4.32;;;0.90;;
52180;SDS011;38158;53.338;6.514;2022-12-29T05:12:17;4.95;;;1.08;;
52180;SDS011;38158;53.338;6.514;2022-12-29T05:14:43;9.07;;;1.42;;
52180;SDS011;38158;53.338;6.514;2022-12-29T05:17:09;7.15;;;0.80;;
52180;SDS011;38158;53.338;6.514;2022-12-29T05:19:34;8.82;;;1.88;;
52180;SDS011;38158;53.338;6.514;2022-12-29T05:22:00;7.28;;;0.98;;
52180;SDS011;38158;53.338;6.514;2022-12-29T05:24:26;6.90;;;0.73;;
52180;SDS011;38158;53.338;6.514;2022-12-29T05:26:51;11.57;;;1.58;;
52180;SDS011;38158;53.338;6.514;2022-12-29T05:29:17;10.07;;;1.00;;
52180;SDS011;38158;53.338;6.514;2022-12-29T05:31:43;7.90;;;0.95;;
52180;SDS011;38158;53.338;6.514;2022-12-29T05:34:10;10.23;;;1.33;;
52180;SDS011;38158;53.338;6.514;2022-12-29T05:36:36;9.00;;;1.20;;
52180;SDS011;38158;53.338;6.514;2022-12-29T05:39:02;13.10;;;1.77;;
52180;SDS011;38158;53.338;6.514;2022-12-29T05:41:28;9.75;;;1.83;;
52180;SDS011;38158;53.338;6.514;2022-12-29T05:43:53;12.63;;;1.33;;
52180;SDS011;38158;53.338;6.514;2022-12-29T05:46:19;10.32;;;1.40;;
52180;SDS011;38158;53.338;6.514;2022-12-29T05:48:44;11.23;;;1.75;;
52180;SDS011;38158;53.338;6.514;2022-12-29T05:51:10;6.25;;;0.80;;
52180;SDS011;38158;53.338;6.514;2022-12-29T05:53:36;6.10;;;1.00;;
52180;SDS011;38158;53.338;6.514;2022-12-29T05:56:02;11.82;;;2.22;;
52180;SDS011;38158;53.338;6.514;2022-12-29T05:58:28;17.67;;;1.52;;
52180;SDS011;38158;53.338;6.514;2022-12-29T06:00:53;12.05;;;1.60;;
52180;SDS011;38158;53.338;6.514;2022-12-29T06:03:19;8.77;;;1.30;;
52180;SDS011;38158;53.338;6.514;2022-12-29T06:05:45;9.45;;;1.40;;
52180;SDS011;38158;53.338;6.514;2022-12-29T06:08:11;10.90;;;1.60;;
52180;SDS011;38158;53.338;6.514;2022-12-29T06:10:37;13.68;;;2.00;;
52180;SDS011;38158;53.338;6.514;2022-12-29T06:13:03;11.93;;;2.60;;
52180;SDS011;38158;53.338;6.514;2022-12-29T06:15:30;8.50;;;1.48;;
52180;SDS011;38158;53.338;6.514;2022-12-29T06:17:56;10.87;;;1.30;;
52180;SDS011;38158;53.338;6.514;2022-12-29T06:20:22;12.15;;;1.45;;
52180;SDS011;38158;53.338;6.514;2022-12-29T06:22:48;6.63;;;1.20;;
52180;SDS011;38158;53.338;6.514;2022-12-29T06:25:14;11.45;;;1.60;;
52180;SDS011;38158;53.338;6.514;2022-12-29T06:27:40;9.57;;;1.20;;
52180;SDS011;38158;53.338;6.514;2022-12-29T06:30:06;7.30;;;1.20;;
52180;SDS011;38158;53.338;6.514;2022-12-29T06:32:34;7.70;;;1.15;;
52180;SDS011;38158;53.338;6.514;2022-12-29T06:35:00;9.90;;;1.88;;
52180;SDS011;38158;53.338;6.514;2022-12-29T06:37:25;11.40;;;2.38;;
52180;SDS011;38158;53.338;6.514;2022-12-29T06:39:51;14.85;;;1.92;;
52180;SDS011;38158;53.338;6.514;2022-12-29T06:42:17;10.90;;;1.70;;
52180;SDS011;38158;53.338;6.514;2022-12-29T06:44:42;12.30;;;1.92;;
52180;SDS011;38158;53.338;6.514;2022-12-29T06:47:08;18.08;;;2.22;;
52180;SDS011;38158;53.338;6.514;2022-12-29T06:49:34;11.35;;;1.90;;
52180;SDS011;38158;53.338;6.514;2022-12-29T06:51:59;11.23;;;1.73;;
52180;SDS011;38158;53.338;6.514;2022-12-29T06:54:28;21.42;;;2.60;;
52180;SDS011;38158;53.338;6.514;2022-12-29T06:56:54;13.85;;;1.98;;
52180;SDS011;38158;53.338;6.514;2022-12-29T06:59:19;17.00;;;2.03;;
52180;SDS011;38158;53.338;6.514;2022-12-29T07:01:45;16.63;;;2.47;;
52180;SDS011;38158;53.338;6.514;2022-12-29T07:04:11;11.82;;;2.22;;
52180;SDS011;38158;53.338;6.514;2022-12-29T07:06:36;11.55;;;1.83;;
52180;SDS011;38158;53.338;6.514;2022-12-29T07:09:02;17.65;;;2.05;;
52180;SDS011;38158;53.338;6.514;2022-12-29T07:11:28;13.48;;;2.10;;
52180;SDS011;38158;53.338;6.514;2022-12-29T07:13:53;15.10;;;1.75;;
52180;SDS011;38158;53.338;6.514;2022-12-29T07:16:19;14.07;;;1.65;;
52180;SDS011;38158;53.338;6.514;2022-12-29T07:18:45;8.57;;;1.30;;
52180;SDS011;38158;53.338;6.514;2022-12-29T07:21:11;13.77;;;1.67;;
52180;SDS011;38158;53.338;6.514;2022-12-29T07:23:36;15.48;;;2.22;;
52180;SDS011;38158;53.338;6.514;2022-12-29T07:26:03;17.40;;;2.22;;
52180;SDS011;38158;53.338;6.514;2022-12-29T07:28:30;13.65;;;1.85;;
52180;SDS011;38158;53.338;6.514;2022-12-29T07:30:57;11.77;;;1.77;;
52180;SDS011;38158;53.338;6.514;2022-12-29T07:33:23;18.15;;;1.60;;
52180;SDS011;38158;53.338;6.514;2022-12-29T07:35:49;14.40;;;1.80;;
52180;SDS011;38158;53.338;6.514;2022-12-29T07:38:15;13.98;;;1.63;;
52180;SDS011;38158;53.338;6.514;2022-12-29T07:40:42;15.60;;;2.20;;
52180;SDS011;38158;53.338;6.514;2022-12-29T07:43:08;15.07;;;1.70;;
52180;SDS011;38158;53.338;6.514;2022-12-29T07:45:34;20.83;;;2.50;;
52180;SDS011;38158;53.338;6.514;2022-12-29T07:47:59;12.75;;;1.83;;
52180;SDS011;38158;53.338;6.514;2022-12-29T07:50:27;13.25;;;2.03;;
52180;SDS011;38158;53.338;6.514;2022-12-29T07:52:53;16.60;;;2.75;;
52180;SDS011;38158;53.338;6.514;2022-12-29T07:55:19;17.63;;;2.40;;
52180;SDS011;38158;53.338;6.514;2022-12-29T07:57:44;16.20;;;2.42;;
52180;SDS011;38158;53.338;6.514;2022-12-29T08:00:10;13.93;;;1.52;;
52180;SDS011;38158;53.338;6.514;2022-12-29T08:02:36;10.15;;;1.58;;
52180;SDS011;38158;53.338;6.514;2022-12-29T08:05:02;17.80;;;2.13;;
52180;SDS011;38158;53.338;6.514;2022-12-29T08:07:28;12.80;;;2.20;;
52180;SDS011;38158;53.338;6.514;2022-12-29T08:09:53;8.60;;;1.92;;
52180;SDS011;38158;53.338;6.514;2022-12-29T08:12:19;15.07;;;1.92;;
52180;SDS011;38158;53.338;6.514;2022-12-29T08:14:45;17.60;;;2.50;;
52180;SDS011;38158;53.338;6.514;2022-12-29T08:17:10;10.13;;;1.52;;
52180;SDS011;38158;53.338;6.514;2022-12-29T08:19:36;11.50;;;2.13;;
52180;SDS011;38158;53.338;6.514;2022-12-29T08:22:02;16.00;;;2.15;;
52180;SDS011;38158;53.338;6.514;2022-12-29T08:24:28;12.10;;;1.92;;
52180;SDS011;38158;53.338;6.514;2022-12-29T08:26:54;20.27;;;2.20;;
52180;SDS011;38158;53.338;6.514;2022-12-29T08:29:20;19.20;;;2.40;;
52180;SDS011;38158;53.338;6.514;2022-12-29T08:31:46;12.93;;;1.83;;
52180;SDS011;38158;53.338;6.514;2022-12-29T08:34:12;15.88;;;2.10;;
52180;SDS011;38158;53.338;6.514;2022-12-29T08:36:38;16.55;;;2.58;;
52180;SDS011;38158;53.338;6.514;2022-12-29T08:39:04;18.73;;;2.80;;
52180;SDS011;38158;53.338;6.514;2022-12-29T08:41:30;20.92;;;3.08;;
52180;SDS011;38158;53.338;6.514;2022-12-29T08:43:56;11.40;;;2.40;;
52180;SDS011;38158;53.338;6.514;2022-12-29T08:46:22;18.63;;;2.70;;
52180;SDS011;38158;53.338;6.514;2022-12-29T08:48:47;16.23;;;1.70;;
52180;SDS011;38158;53.338;6.514;2022-12-29T08:51:13;14.60;;;2.50;;
52180;SDS011;38158;53.338;6.514;2022-12-29T08:53:39;15.23;;;2.03;;
52180;SDS011;38158;53.338;6.514;2022-12-29T08:56:05;17.13;;;2.72;;
52180;SDS011;38158;53.338;6.514;2022-12-29T08:58:31;15.73;;;2.87;;
52180;SDS011;38158;53.338;6.514;2022-12-29T09:00:57;22.80;;;2.80;;
52180;SDS011;38158;53.338;6.514;2022-12-29T09:03:24;20.80;;;3.15;;
52180;SDS011;38158;53.338;6.514;2022-12-29T09:05:50;17.40;;;2.70;;
52180;SDS011;38158;53.338;6.514;2022-12-29T09:08:17;18.33;;;2.40;;
52180;SDS011;38158;53.338;6.514;2022-12-29T09:10:43;17.08;;;2.35;;
52180;SDS011;38158;53.338;6.514;2022-12-29T09:13:10;15.07;;;2.95;;
52180;SDS011;38158;53.338;6.514;2022-12-29T09:15:37;17.75;;;2.85;;
52180;SDS011;38158;53.338;6.514;2022-12-29T09:18:04;13.88;;;2.47;;
52180;SDS011;38158;53.338;6.514;2022-12-29T09:20:30;17.30;;;2.25;;
52180;SDS011;38158;53.338;6.514;2022-12-29T09:22:56;19.35;;;3.20;;
52180;SDS011;38158;53.338;6.514;2022-12-29T09:25:22;16.23;;;2.45;;
52180;SDS011;38158;53.338;6.514;2022-12-29T09:27:49;21.20;;;3.42;;
52180;SDS011;38158;53.338;6.514;2022-12-29T09:30:17;14.90;;;2.42;;
52180;SDS011;38158;53.338;6.514;2022-12-29T09:32:44;26.77;;;3.30;;
52180;SDS011;38158;53.338;6.514;2022-12-29T09:35:10;22.83;;;3.03;;
52180;SDS011;38158;53.338;6.514;2022-12-29T09:37:36;23.63;;;3.05;;
52180;SDS011;38158;53.338;6.514;2022-12-29T09:40:02;20.90;;;3.33;;
52180;SDS011;38158;53.338;6.514;2022-12-29T09:42:31;16.88;;;2.53;;
52180;SDS011;38158;53.338;6.514;2022-12-29T09:47:32;18.75;;;4.03;;
52180;SDS011;38158;53.338;6.514;2022-12-29T09:50:02;19.25;;;2.30;;
52180;SDS011;38158;53.338;6.514;2022-12-29T09:52:35;14.85;;;2.05;;
52180;SDS011;38158;53.338;6.514;2022-12-29T09:55:15;17.25;;;2.22;;
52180;SDS011;38158;53.338;6.514;2022-12-29T09:57:49;17.23;;;2.85;;
52180;SDS011;38158;53.338;6.514;2022-12-29T10:00:19;18.60;;;2.42;;
52180;SDS011;38158;53.338;6.514;2022-12-29T10:02:51;13.57;;;1.65;;
52180;SDS011;38158;53.338;6.514;2022-12-29T10:05:25;18.20;;;2.63;;
52180;SDS011;38158;53.338;6.514;2022-12-29T10:10:53;16.65;;;3.05;;
52180;SDS011;38158;53.338;6.514;2022-12-29T10:14:12;16.00;;;2.03;;
52180;SDS011;38158;53.338;6.514;2022-12-29T10:16:33;11.80;;;2.28;;
52180;SDS011;38158;53.338;6.514;2022-12-29T10:22:04;13.63;;;2.25;;
52180;SDS011;38158;53.338;6.514;2022-12-29T10:24:39;9.68;;;1.73;;
52180;SDS011;38158;53.338;6.514;2022-12-29T10:27:10;10.25;;;1.52;;
52180;SDS011;38158;53.338;6.514;2022-12-29T10:29:40;9.00;;;1.50;;
52180;SDS011;38158;53.338;6.514;2022-12-29T10:32:45;14.18;;;1.80;;
52180;SDS011;38158;53.338;6.514;2022-12-29T10:35:12;14.40;;;1.50;;
52180;SDS011;38158;53.338;6.514;2022-12-29T10:37:56;15.98;;;2.17;;
52180;SDS011;38158;53.338;6.514;2022-12-29T10:43:06;13.15;;;2.08;;
52180;SDS011;38158;53.338;6.514;2022-12-29T10:45:54;15.20;;;2.30;;
52180;SDS011;38158;53.338;6.514;2022-12-29T10:48:30;11.85;;;2.08;;
52180;SDS011;38158;53.338;6.514;2022-12-29T10:50:58;15.57;;;2.42;;
52180;SDS011;38158;53.338;6.514;2022-12-29T10:53:27;17.13;;;2.55;;
52180;SDS011;38158;53.338;6.514;2022-12-29T10:58:55;14.20;;;3.15;;
52180;SDS011;38158;53.338;6.514;2022-12-29T11:01:26;19.48;;;2.78;;
52180;SDS011;38158;53.338;6.514;2022-12-29T11:06:47;21.27;;;3.10;;
52180;SDS011;38158;53.338;6.514;2022-12-29T11:09:19;20.75;;;2.65;;
52180;SDS011;38158;53.338;6.514;2022-12-29T11:11:50;22.55;;;2.80;;
52180;SDS011;38158;53.338;6.514;2022-12-29T11:14:19;17.42;;;2.42;;
52180;SDS011;38158;53.338;6.514;2022-12-29T11:16:57;28.58;;;3.70;;
52180;SDS011;38158;53.338;6.514;2022-12-29T11:19:24;21.20;;;3.88;;
52180;SDS011;38158;53.338;6.514;2022-12-29T11:21:51;21.30;;;2.53;;
52180;SDS011;38158;53.338;6.514;2022-12-29T11:24:25;27.67;;;3.10;;
52180;SDS011;38158;53.338;6.514;2022-12-29T11:26:54;18.20;;;2.38;;
52180;SDS011;38158;53.338;6.514;2022-12-29T11:29:39;17.95;;;2.65;;
52180;SDS011;38158;53.338;6.514;2022-12-29T11:32:17;23.58;;;3.60;;
52180;SDS011;38158;53.338;6.514;2022-12-29T11:34:44;11.93;;;2.42;;
52180;SDS011;38158;53.338;6.514;2022-12-29T11:37:11;19.63;;;3.58;;
52180;SDS011;38158;53.338;6.514;2022-12-29T11:39:55;16.63;;;2.75;;
52180;SDS011;38158;53.338;6.514;2022-12-29T11:42:37;20.50;;;3.40;;
52180;SDS011;38158;53.338;6.514;2022-12-29T11:45:06;23.30;;;3.22;;
52180;SDS011;38158;53.338;6.514;2022-12-29T11:47:55;18.02;;;2.92;;
52180;SDS011;38158;53.338;6.514;2022-12-29T11:50:25;26.58;;;4.45;;
52180;SDS011;38158;53.338;6.514;2022-12-29T11:52:58;25.30;;;3.83;;
52180;SDS011;38158;53.338;6.514;2022-12-29T11:55:30;23.25;;;3.80;;
52180;SDS011;38158;53.338;6.514;2022-12-29T11:57:57;25.33;;;3.47;;
52180;SDS011;38158;53.338;6.514;2022-12-29T12:00:26;20.27;;;2.80;;
52180;SDS011;38158;53.338;6.514;2022-12-29T12:05:21;21.33;;;2.85;;
52180;SDS011;38158;53.338;6.514;2022-12-29T12:11:06;22.23;;;2.70;;
52180;SDS011;38158;53.338;6.514;2022-12-29T12:16:22;19.70;;;2.70;;
52180;SDS011;38158;53.338;6.514;2022-12-29T12:18:55;17.77;;;2.97;;
52180;SDS011;38158;53.338;6.514;2022-12-29T12:26:54;13.80;;;2.58;;
52180;SDS011;38158;53.338;6.514;2022-12-29T12:29:24;13.57;;;2.03;;
52180;SDS011;38158;53.338;6.514;2022-12-29T12:34:42;19.08;;;3.13;;
52180;SDS011;38158;53.338;6.514;2022-12-29T12:42:26;14.10;;;2.72;;
52180;SDS011;38158;53.338;6.514;2022-12-29T12:51:42;9.60;;;1.40;;
52180;SDS011;38158;53.338;6.514;2022-12-29T12:57:50;11.40;;;1.98;;
52180;SDS011;38158;53.338;6.514;2022-12-29T13:00:12;14.18;;;1.67;;
52180;SDS011;38158;53.338;6.514;2022-12-29T13:03:05;10.15;;;1.50;;
52180;SDS011;38158;53.338;6.514;2022-12-29T13:11:34;10.10;;;2.15;;
52180;SDS011;38158;53.338;6.514;2022-12-29T13:17:25;10.70;;;1.38;;
52180;SDS011;38158;53.338;6.514;2022-12-29T13:20:02;14.02;;;2.22;;
52180;SDS011;38158;53.338;6.514;2022-12-29T13:41:51;12.13;;;1.25;;
52180;SDS011;38158;53.338;6.514;2022-12-29T13:44:22;10.38;;;1.50;;
52180;SDS011;38158;53.338;6.514;2022-12-29T13:46:55;11.95;;;2.10;;
52180;SDS011;38158;53.338;6.514;2022-12-29T13:49:23;12.00;;;1.50;;
52180;SDS011;38158;53.338;6.514;2022-12-29T13:51:55;11.23;;;1.50;;
52180;SDS011;38158;53.338;6.514;2022-12-29T13:57:14;8.60;;;1.30;;
52180;SDS011;38158;53.338;6.514;2022-12-29T14:00:02;8.43;;;1.88;;
52180;SDS011;38158;53.338;6.514;2022-12-29T14:02:40;8.30;;;1.30;;
52180;SDS011;38158;53.338;6.514;2022-12-29T14:07:45;6.72;;;1.02;;
52180;SDS011;38158;53.338;6.514;2022-12-29T14:15:42;8.02;;;0.80;;
52180;SDS011;38158;53.338;6.514;2022-12-29T14:28:35;10.02;;;1.17;;
52180;SDS011;38158;53.338;6.514;2022-12-29T14:33:41;9.45;;;1.65;;
52180;SDS011;38158;53.338;6.514;2022-12-29T14:36:34;8.30;;;1.17;;
52180;SDS011;38158;53.338;6.514;2022-12-29T14:44:45;12.20;;;1.42;;
52180;SDS011;38158;53.338;6.514;2022-12-29T14:47:14;14.02;;;1.70;;
52180;SDS011;38158;53.338;6.514;2022-12-29T14:56:19;14.57;;;2.00;;
52180;SDS011;38158;53.338;6.514;2022-12-29T15:04:21;7.45;;;1.45;;
52180;SDS011;38158;53.338;6.514;2022-12-29T15:06:50;12.00;;;1.92;;
52180;SDS011;38158;53.338;6.514;2022-12-29T15:09:36;10.13;;;1.98;;
52180;SDS011;38158;53.338;6.514;2022-12-29T15:12:30;13.02;;;2.15;;
52180;SDS011;38158;53.338;6.514;2022-12-29T15:15:19;14.95;;;3.05;;
52180;SDS011;38158;53.338;6.514;2022-12-29T15:17:49;17.50;;;2.38;;
52180;SDS011;38158;53.338;6.514;2022-12-29T15:22:52;14.13;;;1.90;;
52180;SDS011;38158;53.338;6.514;2022-12-29T15:25:20;9.85;;;1.40;;
52180;SDS011;38158;53.338;6.514;2022-12-29T15:28:02;10.55;;;1.70;;
52180;SDS011;38158;53.338;6.514;2022-12-29T15:30:30;12.82;;;1.70;;
52180;SDS011;38158;53.338;6.514;2022-12-29T15:32:56;20.08;;;3.30;;
52180;SDS011;38158;53.338;6.514;2022-12-29T15:35:27;19.90;;;2.97;;
52180;SDS011;38158;53.338;6.514;2022-12-29T15:37:53;16.05;;;2.33;;
52180;SDS011;38158;53.338;6.514;2022-12-29T15:40:37;11.23;;;1.17;;
52180;SDS011;38158;53.338;6.514;2022-12-29T15:45:44;12.10;;;1.95;;
52180;SDS011;38158;53.338;6.514;2022-12-29T15:48:13;10.82;;;1.73;;
52180;SDS011;38158;53.338;6.514;2022-12-29T15:50:43;16.80;;;2.70;;
52180;SDS011;38158;53.338;6.514;2022-12-29T15:53:11;14.50;;;2.45;;
52180;SDS011;38158;53.338;6.514;2022-12-29T15:55:43;14.68;;;2.08;;
52180;SDS011;38158;53.338;6.514;2022-12-29T15:58:25;19.02;;;2.13;;
52180;SDS011;38158;53.338;6.514;2022-12-29T16:00:54;14.98;;;1.92;;
52180;SDS011;38158;53.338;6.514;2022-12-29T16:03:23;14.25;;;2.22;;
52180;SDS011;38158;53.338;6.514;2022-12-29T16:05:56;15.00;;;1.50;;
52180;SDS011;38158;53.338;6.514;2022-12-29T16:08:39;15.65;;;1.92;;
52180;SDS011;38158;53.338;6.514;2022-12-29T16:11:07;12.43;;;1.92;;
52180;SDS011;38158;53.338;6.514;2022-12-29T16:14:02;16.95;;;3.42;;
52180;SDS011;38158;53.338;6.514;2022-12-29T16:16:40;15.40;;;2.13;;
52180;SDS011;38158;53.338;6.514;2022-12-29T16:21:52;15.20;;;1.90;;
52180;SDS011;38158;53.338;6.514;2022-12-29T16:24:19;11.93;;;1.80;;
52180;SDS011;38158;53.338;6.514;2022-12-29T16:26:49;18.52;;;2.00;;
52180;SDS011;38158;53.338;6.514;2022-12-29T16:29:19;10.82;;;1.63;;
52180;SDS011;38158;53.338;6.514;2022-12-29T16:34:42;9.73;;;0.73;;
52180;SDS011;38158;53.338;6.514;2022-12-29T16:40:39;7.55;;;0.70;;
52180;SDS011;38158;53.338;6.514;2022-12-29T16:43:01;6.47;;;0.60;;
52180;SDS011;38158;53.338;6.514;2022-12-29T16:50:40;3.72;;;0.55;;
52180;SDS011;38158;53.338;6.514;2022-12-29T16:55:49;4.03;;;0.60;;
52180;SDS011;38158;53.338;6.514;2022-12-29T16:58:18;6.43;;;0.82;;
52180;SDS011;38158;53.338;6.514;2022-12-29T17:00:48;4.55;;;0.68;;
52180;SDS011;38158;53.338;6.514;2022-12-29T17:03:14;5.15;;;0.50;;
52180;SDS011;38158;53.338;6.514;2022-12-29T17:05:40;5.37;;;0.60;;
52180;SDS011;38158;53.338;6.514;2022-12-29T17:08:24;3.17;;;0.50;;
52180;SDS011;38158;53.338;6.514;2022-12-29T17:10:54;4.93;;;0.90;;
52180;SDS011;38158;53.338;6.514;2022-12-29T17:13:40;7.25;;;1.42;;
52180;SDS011;38158;53.338;6.514;2022-12-29T17:16:06;9.90;;;1.75;;
52180;SDS011;38158;53.338;6.514;2022-12-29T17:18:34;9.80;;;3.13;;
52180;SDS011;38158;53.338;6.514;2022-12-29T17:21:01;13.00;;;2.17;;
52180;SDS011;38158;53.338;6.514;2022-12-29T17:23:27;7.90;;;1.60;;
52180;SDS011;38158;53.338;6.514;2022-12-29T17:25:56;9.75;;;1.65;;
52180;SDS011;38158;53.338;6.514;2022-12-29T17:28:26;12.23;;;3.30;;
52180;SDS011;38158;53.338;6.514;2022-12-29T17:30:57;13.75;;;1.88;;
52180;SDS011;38158;53.338;6.514;2022-12-29T17:33:26;8.70;;;2.03;;
52180;SDS011;38158;53.338;6.514;2022-12-29T17:35:54;10.85;;;1.95;;
52180;SDS011;38158;53.338;6.514;2022-12-29T17:38:21;13.50;;;1.55;;
52180;SDS011;38158;53.338;6.514;2022-12-29T17:40:49;13.65;;;2.08;;
52180;SDS011;38158;53.338;6.514;2022-12-29T17:43:15;16.70;;;2.80;;
52180;SDS011;38158;53.338;6.514;2022-12-29T17:45:42;15.82;;;1.75;;
52180;SDS011;38158;53.338;6.514;2022-12-29T17:48:10;16.58;;;2.53;;
52180;SDS011;38158;53.338;6.514;2022-12-29T17:50:40;15.27;;;3.97;;
52180;SDS011;38158;53.338;6.514;2022-12-29T17:53:10;18.98;;;3.08;;
52180;SDS011;38158;53.338;6.514;2022-12-29T17:55:38;13.40;;;2.22;;
52180;SDS011;38158;53.338;6.514;2022-12-29T18:00:44;18.25;;;3.20;;